Terminal Aerodrome Forecast
Issued by NWS

Home | Current Version | Previous Version | Text Only | Print | Product List | Glossary On
Versions: 1 2 3 4 5 6 7 8 9 10 11 12 13 14 15 16 17 18 19 20 21 22 23
000
FTUS43 KDVN 240900 AAA
TAFCID
TAF AMD
KCID 240925Z 2409/2506 11015G24KT P6SM OVC080
     FM241100 13013G21KT P6SM VCSH BKN100
     FM241600 16015G24KT 4SM -SHRA BR VCTS OVC035CB
     FM242100 21011KT 3SM -RA BR OVC025
     FM250100 31012KT P6SM BKN050=

USA.gov is the U.S. government's official web portal to all federal, state and local government web resources and services.